Bavaria

Go HERE for most recent data if this page is not up to date.

Jump to table bottom
Date Time Temp F RH % AVG Wind Max Wind Wind Dir 24 Snow Depth
04/16 23:00 21.9 89 3 8 NW - 325 6.3 152.5
04/16 22:00 22.4 89 6 12 NW - 329 5.8 152.5
04/16 21:00 24.7 91 6 13 NW - 295 5.9 152.5
04/16 20:00 25.9 91 4 11 SW - 238 5.0 152.5
04/16 19:00 26.7 90 5 12 W - 279 3.0 152.5
04/16 18:00 28.7 90 2 4 SW - 235 1.5 152.5
04/16 17:00 29.5 88 2 7 S - 194 0.4 152.5
04/16 16:00 29.3 88 2 5 SE - 150 0.0 48.3
04/16 15:00 31.0 79 2 8 SW - 203 -0.2 48.0
04/16 14:00 35.9 48 3 10 W - 276 -0.2 48.5
04/16 13:00 34.3 49 3 9 NW - 321 -0.2 48.8
04/16 12:00 35.0 48 2 5 W - 271 -0.1 49.0
04/16 11:00 32.7 53 2 8 SW - 215 -0.2 49.2
04/16 10:00 31.8 60 2 6 S - 191 -0.0 49.6
04/16 09:00 28.5 70 2 6 W - 262 0.0 49.8
04/16 08:00 25.3 78 3 11 W - 273 0.2 49.8
04/16 07:00 22.8 84 7 13 NW - 293 0.2 49.7
04/16 06:00 22.8 84 10 16 NW - 325 0.2 49.8
04/16 05:00 22.6 84 7 16 W - 284 0.1 49.9
04/16 04:00 22.9 84 9 17 W - 280 0.1 50.0
04/16 03:00 24.0 79 9 18 W - 277 0.1 49.8
04/16 02:00 25.3 78 7 16 W - 292 0.1 49.6
04/16 01:00 26.8 79 8 13 NW - 309 0.1 49.4
04/16 00:00 29.5 76 1 5 NW - 313 0.1 49.4
04/15 23:00 30.8 77 0 4 SE - 128 0.2 49.5
04/15 22:00 30.5 79 2 6 SE - 157 0.1 49.5
04/15 21:00 32.5 83 2 6 SW - 232 0.1 49.5
04/15 20:00 32.7 82 0 6 W - 276 0.1 49.4
04/15 19:00 36.4 73 1 3 S - 159 0.0 49.5
04/15 18:00 36.7 71 0 3 SW - 227 0.0 49.8
04/15 17:00 36.3 73 1 5 N - 18 0.2 49.7
04/15 16:00 33.4 82 2 7 SW - 207 0.1 49.8
04/15 15:00 33.5 85 2 7 W - 250 0.3 49.7
04/15 14:00 33.1 84 6 12 E - 79 0.7 50.0
04/15 13:00 32.9 82 5 8 NW - 330 1.1 50.2
04/15 12:00 31.9 86 6 10 N - 342 1.2 152.5
04/15 11:00 31.7 85 3 8 N - 9 1.8 50.8
04/15 10:00 33.3 82 0 3 W - 252 2.0 51.1
04/15 09:00 34.5 77 0 3 SE - 157 2.4 51.2
04/15 08:00 30.8 87 2 15 N - 20 2.4 52.0
04/15 07:00 30.6 83 1 10 N - 4 2.5 152.5
04/15 06:00 29.5 91 0 2 NE - 58 1.8 152.5
04/15 05:00 29.9 91 1 5 NW - 325 0.0 152.5
04/15 04:00 30.1 89 2 9 W - 284 1.0 152.5
04/15 03:00 31.1 86 0 3 N - 11 0.0 48.7
04/15 02:00 31.9 82 0 4 E - 72 -0.0 48.3
04/15 01:00 36.8 50 1 5 SE - 154 0.0 48.4
04/15 00:00 37.2 50 4 7 W - 275 0.0 48.4
.